Time;durP1;ratioP1;P1;durP2;ratioP2;P2;SDS_P1;SDS_P2;PMS_P1;PMS_P2;Temp;Humidity;BMP_temperature;BMP_pressure;BME280_temperature;BME280_humidity;BME280_pressure;Samples;Min_cycle;Max_cycle;Signal;HPM_P1;HPM_P2
2022/12/07 00:01:49;;;;;;;5.03;4.47;;;;;;;;;;4967289;28;20428;-73
2022/12/07 00:04:17;;;;;;;4.43;4.05;;;;;;;;;;4964699;28;20070;-73
2022/12/07 00:06:46;;;;;;;5.40;4.90;;;;;;;;;;4959198;28;20035;-73
2022/12/07 00:09:14;;;;;;;5.18;4.15;;;;;;;;;;4959535;28;20042;-73
2022/12/07 00:11:42;;;;;;;5.20;4.70;;;;;;;;;;4968669;28;20049;-73
2022/12/07 00:14:13;;;;;;;5.40;4.90;;;;;;;;;;4968470;28;20458;-73
2022/12/07 00:16:41;;;;;;;4.70;4.30;;;;;;;;;;4968863;28;20054;-73
2022/12/07 00:19:09;;;;;;;5.95;4.55;;;;;;;;;;4960788;28;20076;-73
2022/12/07 00:21:37;;;;;;;5.15;4.65;;;;;;;;;;4961600;28;20043;-73
2022/12/07 00:24:05;;;;;;;4.78;4.38;;;;;;;;;;4966249;28;20089;-73
2022/12/07 00:26:34;;;;;;;3.38;3.08;;;;;;;;;;4968391;28;20387;-72
2022/12/07 00:29:04;;;;;;;4.78;4.28;;;;;;;;;;4966677;28;20042;-73
2022/12/07 00:31:33;;;;;;;3.95;3.65;;;;;;;;;;4980824;28;20073;-74
2022/12/07 00:34:02;;;;;;;5.00;4.53;;;;;;;;;;4971439;28;20043;-73
2022/12/07 00:36:30;;;;;;;5.03;4.47;;;;;;;;;;4970312;28;20062;-73
2022/12/07 00:38:58;;;;;;;5.13;4.68;;;;;;;;;;4963642;28;20119;-73
2022/12/07 00:41:26;;;;;;;4.20;3.80;;;;;;;;;;4972477;28;20410;-73
2022/12/07 00:43:54;;;;;;;3.67;3.33;;;;;;;;;;4973912;28;20094;-73
2022/12/07 00:46:21;;;;;;;5.32;4.85;;;;;;;;;;4967007;28;20053;-73
2022/12/07 00:48:49;;;;;;;5.03;4.63;;;;;;;;;;4966679;28;20051;-73
2022/12/07 00:51:18;;;;;;;5.80;4.63;;;;;;;;;;4964361;28;20337;-74
2022/12/07 00:53:45;;;;;;;4.85;4.45;;;;;;;;;;4965788;28;20043;-74
2022/12/07 00:56:14;;;;;;;6.05;5.20;;;;;;;;;;4965951;28;20542;-73
2022/12/07 00:58:42;;;;;;;5.40;4.90;;;;;;;;;;4965660;28;20045;-73
2022/12/07 01:01:10;;;;;;;4.72;4.32;;;;;;;;;;4967043;28;20485;-72
2022/12/07 01:03:37;;;;;;;6.38;5.15;;;;;;;;;;4967280;28;20506;-72
2022/12/07 01:06:05;;;;;;;6.03;4.85;;;;;;;;;;4967724;28;20392;-73
2022/12/07 01:08:33;;;;;;;5.85;5.10;;;;;;;;;;4971031;28;20042;-71
2022/12/07 01:11:07;;;;;;;4.97;4.47;;;;;;;;;;4969140;28;20078;-74
2022/12/07 01:13:37;;;;;;;5.03;4.63;;;;;;;;;;4945232;28;20149;-72
2022/12/07 01:16:06;;;;;;;4.70;4.30;;;;;;;;;;4966028;28;20054;-73
2022/12/07 01:18:35;;;;;;;4.28;3.92;;;;;;;;;;4981431;28;20039;-73
2022/12/07 01:21:14;;;;;;;6.07;4.90;;;;;;;;;;4971971;28;20479;-74
2022/12/07 01:23:42;;;;;;;4.78;4.25;;;;;;;;;;4974208;28;20090;-73
2022/12/07 01:26:11;;;;;;;4.30;3.90;;;;;;;;;;4975971;28;20042;-73
2022/12/07 01:28:39;;;;;;;4.93;4.32;;;;;;;;;;4978456;28;20499;-73
2022/12/07 01:31:06;;;;;;;4.82;4.40;;;;;;;;;;4968185;28;20054;-73
2022/12/07 01:33:37;;;;;;;3.80;3.50;;;;;;;;;;4962064;28;20035;-73
2022/12/07 01:36:05;;;;;;;4.25;3.85;;;;;;;;;;4960869;28;20047;-73
2022/12/07 01:38:33;;;;;;;4.60;4.05;;;;;;;;;;4961976;28;20136;-73
2022/12/07 01:41:01;;;;;;;4.22;3.83;;;;;;;;;;4971490;28;20553;-74
2022/12/07 01:43:29;;;;;;;4.60;4.20;;;;;;;;;;4966853;28;20038;-73
2022/12/07 01:45:56;;;;;;;4.40;4.00;;;;;;;;;;4963184;28;20419;-73
2022/12/07 01:48:35;;;;;;;5.55;4.18;;;;;;;;;;4970822;28;20035;-73
2022/12/07 01:51:06;;;;;;;4.80;4.32;;;;;;;;;;4972438;28;20554;-73
2022/12/07 01:53:34;;;;;;;4.07;3.77;;;;;;;;;;4965098;28;20045;-73
2022/12/07 01:56:02;;;;;;;4.20;3.80;;;;;;;;;;4952056;28;20651;-73
2022/12/07 01:58:29;;;;;;;5.13;4.63;;;;;;;;;;4973659;28;20047;-73
2022/12/07 02:00:57;;;;;;;4.55;4.15;;;;;;;;;;4966945;28;20700;-73
2022/12/07 02:03:34;;;;;;;4.90;4.40;;;;;;;;;;4963702;28;20043;-72
2022/12/07 02:06:01;;;;;;;4.93;4.43;;;;;;;;;;4963669;28;20038;-74
2022/12/07 02:08:28;;;;;;;4.40;4.00;;;;;;;;;;4967089;28;20046;-73
2022/12/07 02:10:56;;;;;;;4.60;4.20;;;;;;;;;;4975577;28;20070;-73
2022/12/07 02:13:26;;;;;;;4.50;4.10;;;;;;;;;;4992904;23;20046;-86
2022/12/07 02:15:57;;;;;;;4.40;4.00;;;;;;;;;;4993003;28;20046;-86
2022/12/07 02:18:30;;;;;;;4.80;4.30;;;;;;;;;;5038881;28;20041;-86
2022/12/07 02:21:07;;;;;;;4.85;4.35;;;;;;;;;;5033970;28;20636;-86
2022/12/07 02:23:41;;;;;;;5.00;4.50;;;;;;;;;;4988480;28;20065;-88
2022/12/07 02:26:15;;;;;;;4.57;4.18;;;;;;;;;;5012629;28;20042;-87
2022/12/07 02:28:48;;;;;;;4.18;3.78;;;;;;;;;;5014159;28;20107;-87
2022/12/07 02:31:19;;;;;;;4.85;4.35;;;;;;;;;;5001385;28;20047;-87
2022/12/07 02:33:50;;;;;;;4.38;3.97;;;;;;;;;;4992861;28;20053;-87
2022/12/07 02:36:25;;;;;;;5.13;4.70;;;;;;;;;;5027913;28;20038;-86
2022/12/07 02:39:00;;;;;;;4.80;4.30;;;;;;;;;;5018611;28;20109;-86
2022/12/07 02:41:38;;;;;;;6.00;4.35;;;;;;;;;;5013905;28;20064;-87
2022/12/07 02:44:08;;;;;;;5.03;4.63;;;;;;;;;;4980896;28;20116;-86
2022/12/07 02:46:41;;;;;;;4.70;4.30;;;;;;;;;;5047766;23;20083;-74
2022/12/07 02:49:08;;;;;;;5.72;4.78;;;;;;;;;;5042911;28;20464;-74
2022/12/07 02:51:39;;;;;;;4.75;4.35;;;;;;;;;;5045303;28;20036;-74
2022/12/07 02:54:14;;;;;;;4.88;4.45;;;;;;;;;;5041835;28;20049;-73
2022/12/07 02:56:44;;;;;;;4.90;4.40;;;;;;;;;;5037686;28;20471;-73
2022/12/07 02:59:30;;;;;;;4.45;4.05;;;;;;;;;;5042418;28;20049;-73
2022/12/07 03:02:10;;;;;;;4.68;4.28;;;;;;;;;;5041536;28;20037;-73
2022/12/07 03:04:37;;;;;;;5.85;5.25;;;;;;;;;;5047784;28;20041;-74
2022/12/07 03:07:15;;;;;;;12.73;11.77;;;;;;;;;;5031890;28;20395;-74
2022/12/07 03:09:51;;;;;;;5.35;4.60;;;;;;;;;;5026995;28;20037;-74
2022/12/07 03:12:21;;;;;;;5.00;4.50;;;;;;;;;;5045646;28;20397;-73
2022/12/07 03:14:52;;;;;;;5.40;4.60;;;;;;;;;;5028853;28;20045;-73
2022/12/07 03:17:22;;;;;;;5.55;4.90;;;;;;;;;;5028994;28;20467;-73
2022/12/07 03:19:50;;;;;;;6.68;5.28;;;;;;;;;;5039209;28;20064;-73
2022/12/07 03:22:18;;;;;;;6.25;4.90;;;;;;;;;;5040413;28;20041;-73
2022/12/07 03:24:48;;;;;;;9.43;4.43;;;;;;;;;;5041434;28;20033;-73
2022/12/07 03:27:35;;;;;;;17.58;14.80;;;;;;;;;;5037199;28;20045;-73
2022/12/07 03:30:11;;;;;;;5.13;4.63;;;;;;;;;;5040701;28;20052;-73
2022/12/07 03:33:05;;;;;;;5.65;4.38;;;;;;;;;;5036614;28;20048;-73
2022/12/07 03:35:35;;;;;;;4.45;4.05;;;;;;;;;;5039406;28;20497;-73
2022/12/07 03:38:11;;;;;;;4.95;4.45;;;;;;;;;;5031343;28;20095;-73
2022/12/07 03:41:05;;;;;;;5.20;4.70;;;;;;;;;;5033869;28;20041;-73
2022/12/07 03:43:33;;;;;;;5.07;4.55;;;;;;;;;;5027819;28;20055;-74
2022/12/07 03:46:04;;;;;;;5.03;4.55;;;;;;;;;;5032893;28;20419;-74
2022/12/07 03:48:37;;;;;;;5.88;5.20;;;;;;;;;;5031851;28;20033;-74
2022/12/07 03:51:07;;;;;;;5.88;5.03;;;;;;;;;;5040438;28;20421;-74
2022/12/07 03:53:37;;;;;;;4.68;4.15;;;;;;;;;;5032650;28;20431;-74
2022/12/07 03:56:05;;;;;;;21.08;19.45;;;;;;;;;;5039997;28;20040;-73
2022/12/07 03:58:33;;;;;;;13.55;12.55;;;;;;;;;;5029505;28;20067;-74
2022/12/07 04:01:01;;;;;;;6.10;4.65;;;;;;;;;;5039255;28;20118;-74
2022/12/07 04:03:29;;;;;;;4.32;3.92;;;;;;;;;;5035343;28;20044;-74
2022/12/07 04:05:57;;;;;;;5.30;4.55;;;;;;;;;;5022885;28;20433;-73
2022/12/07 04:08:25;;;;;;;5.20;4.57;;;;;;;;;;5028559;28;20041;-74
2022/12/07 04:10:52;;;;;;;5.30;4.80;;;;;;;;;;5038196;28;20030;-74
2022/12/07 04:13:19;;;;;;;8.10;5.28;;;;;;;;;;5024159;28;20046;-75
2022/12/07 04:16:08;;;;;;;6.25;4.93;;;;;;;;;;5034415;28;20052;-74
2022/12/07 04:18:34;;;;;;;5.32;4.82;;;;;;;;;;5034635;28;20077;-75
2022/12/07 04:21:05;;;;;;;4.85;4.35;;;;;;;;;;5026942;28;20161;-74
2022/12/07 04:23:37;;;;;;;5.13;4.68;;;;;;;;;;5010968;28;20050;-75
2022/12/07 04:26:04;;;;;;;5.47;4.97;;;;;;;;;;5025632;28;20417;-74
2022/12/07 04:28:32;;;;;;;5.50;4.70;;;;;;;;;;5031741;28;20051;-74
2022/12/07 04:30:59;;;;;;;5.43;4.88;;;;;;;;;;5028117;28;20576;-74
2022/12/07 04:33:26;;;;;;;5.78;4.95;;;;;;;;;;5027244;28;20047;-75
2022/12/07 04:35:54;;;;;;;4.97;4.57;;;;;;;;;;5030040;28;20087;-75
2022/12/07 04:38:21;;;;;;;5.10;4.70;;;;;;;;;;5009404;28;20040;-75
2022/12/07 04:40:49;;;;;;;4.50;4.10;;;;;;;;;;5025979;28;20037;-74
2022/12/07 04:43:16;;;;;;;5.55;5.05;;;;;;;;;;5014337;28;20057;-75
2022/12/07 04:45:47;;;;;;;5.25;4.75;;;;;;;;;;5037716;28;20037;-75
2022/12/07 04:48:15;;;;;;;5.78;5.28;;;;;;;;;;5027946;28;21432;-74
2022/12/07 04:50:42;;;;;;;5.90;5.28;;;;;;;;;;5036130;28;20123;-74
2022/12/07 04:53:12;;;;;;;5.65;5.15;;;;;;;;;;5025665;28;20074;-75
2022/12/07 04:55:39;;;;;;;5.50;5.00;;;;;;;;;;5030890;28;20044;-73
2022/12/07 04:58:07;;;;;;;5.10;4.70;;;;;;;;;;5029447;28;20421;-74
2022/12/07 05:00:34;;;;;;;6.57;5.88;;;;;;;;;;5049065;28;20135;-75
2022/12/07 05:03:02;;;;;;;6.32;5.45;;;;;;;;;;5048919;28;20084;-74
2022/12/07 05:05:29;;;;;;;5.32;4.82;;;;;;;;;;5028221;28;20057;-74
2022/12/07 05:07:56;;;;;;;5.57;4.97;;;;;;;;;;5043515;28;20404;-74
2022/12/07 05:10:24;;;;;;;5.60;5.05;;;;;;;;;;5049741;28;20045;-74
2022/12/07 05:12:51;;;;;;;7.47;6.00;;;;;;;;;;5049447;28;20574;-74
2022/12/07 05:15:18;;;;;;;7.80;7.10;;;;;;;;;;5042373;28;20091;-74
2022/12/07 05:17:46;;;;;;;5.78;5.28;;;;;;;;;;5028680;28;20053;-74
2022/12/07 05:20:13;;;;;;;6.28;5.68;;;;;;;;;;5029815;28;20038;-74
2022/12/07 05:22:40;;;;;;;6.50;5.85;;;;;;;;;;5029821;28;20297;-73
2022/12/07 05:25:08;;;;;;;9.13;6.75;;;;;;;;;;5043493;28;20041;-74
2022/12/07 05:27:35;;;;;;;8.73;6.60;;;;;;;;;;5044171;28;20041;-75
2022/12/07 05:30:02;;;;;;;6.43;5.82;;;;;;;;;;5028049;28;20746;-75
2022/12/07 05:32:30;;;;;;;9.20;5.18;;;;;;;;;;5029047;28;20417;-75
2022/12/07 05:34:58;;;;;;;14.93;11.88;;;;;;;;;;5026366;28;20052;-76
2022/12/07 05:37:25;;;;;;;7.55;6.80;;;;;;;;;;5026973;28;20504;-75
2022/12/07 05:39:52;;;;;;;6.80;6.07;;;;;;;;;;5027119;28;20539;-75
2022/12/07 05:42:19;;;;;;;6.30;5.70;;;;;;;;;;5016210;28;20452;-75
2022/12/07 05:44:47;;;;;;;6.50;5.50;;;;;;;;;;5038350;28;20106;-76
2022/12/07 05:47:15;;;;;;;10.40;8.75;;;;;;;;;;5028703;28;20075;-75
2022/12/07 05:49:42;;;;;;;8.82;7.07;;;;;;;;;;5029124;28;20507;-74
2022/12/07 05:52:10;;;;;;;7.53;6.25;;;;;;;;;;5027438;28;20037;-75
2022/12/07 05:54:37;;;;;;;6.18;5.57;;;;;;;;;;5021196;28;20484;-75
2022/12/07 05:57:04;;;;;;;7.53;6.72;;;;;;;;;;5040339;28;20123;-75
2022/12/07 05:59:32;;;;;;;6.60;6.00;;;;;;;;;;5042863;28;20045;-75
2022/12/07 06:02:04;;;;;;;7.55;6.70;;;;;;;;;;5014094;28;20151;-75
2022/12/07 06:04:36;;;;;;;7.10;6.40;;;;;;;;;;5011161;28;20501;-75
2022/12/07 06:07:03;;;;;;;7.65;6.45;;;;;;;;;;5030738;28;20042;-75
2022/12/07 06:09:31;;;;;;;8.65;7.00;;;;;;;;;;5040684;28;20512;-75
2022/12/07 06:14:45;;;;;;;7.80;6.55;;;;;;;;;;5034088;28;20704;-74
2022/12/07 06:17:12;;;;;;;9.73;7.95;;;;;;;;;;5031114;28;20048;-75
2022/12/07 06:19:40;;;;;;;9.45;7.95;;;;;;;;;;5037974;28;20033;-75
2022/12/07 06:22:08;;;;;;;10.25;8.02;;;;;;;;;;5037309;28;20056;-74
2022/12/07 06:24:36;;;;;;;11.15;9.10;;;;;;;;;;5036395;28;20064;-74
2022/12/07 06:27:04;;;;;;;9.43;7.47;;;;;;;;;;5041225;28;20458;-74
2022/12/07 06:29:31;;;;;;;10.52;8.07;;;;;;;;;;5037924;28;20139;-74
2022/12/07 06:31:58;;;;;;;9.55;8.10;;;;;;;;;;5036032;28;20043;-74
2022/12/07 06:34:26;;;;;;;10.18;8.43;;;;;;;;;;5046690;28;20041;-72
2022/12/07 06:36:54;;;;;;;9.57;6.75;;;;;;;;;;5045922;28;20045;-72
2022/12/07 06:39:23;;;;;;;10.43;8.35;;;;;;;;;;5031637;28;20045;-72
2022/12/07 06:41:51;;;;;;;11.13;8.43;;;;;;;;;;5022292;28;20056;-72
2022/12/07 06:44:19;;;;;;;8.00;6.75;;;;;;;;;;5025163;28;20076;-72
2022/12/07 06:46:46;;;;;;;10.20;8.52;;;;;;;;;;5029336;28;20125;-72
2022/12/07 06:49:14;;;;;;;8.85;7.70;;;;;;;;;;5042119;28;20041;-73
2022/12/07 06:51:41;;;;;;;28.90;25.95;;;;;;;;;;5021850;28;20037;-73
2022/12/07 06:54:10;;;;;;;7.90;7.10;;;;;;;;;;5033272;28;20065;-73
2022/12/07 06:56:37;;;;;;;8.13;7.32;;;;;;;;;;5035096;28;20626;-73
2022/12/07 06:59:06;;;;;;;7.05;6.22;;;;;;;;;;5044880;28;20079;-73
2022/12/07 07:01:34;;;;;;;10.18;8.80;;;;;;;;;;5040956;28;20123;-73
2022/12/07 07:04:02;;;;;;;9.00;8.10;;;;;;;;;;5043159;28;20068;-73
2022/12/07 07:06:30;;;;;;;7.43;6.70;;;;;;;;;;5034227;28;20033;-73
2022/12/07 07:08:57;;;;;;;8.77;7.22;;;;;;;;;;5032869;28;20176;-73
2022/12/07 07:11:25;;;;;;;8.13;7.32;;;;;;;;;;5035282;28;20048;-73
2022/12/07 07:13:53;;;;;;;9.77;8.00;;;;;;;;;;5030225;28;20040;-73
2022/12/07 07:16:20;;;;;;;9.15;7.25;;;;;;;;;;5037509;28;20064;-73
2022/12/07 07:18:48;;;;;;;7.88;6.80;;;;;;;;;;5020206;28;20473;-73
2022/12/07 07:21:15;;;;;;;7.28;6.50;;;;;;;;;;5025170;28;20132;-73
2022/12/07 07:23:43;;;;;;;10.45;7.85;;;;;;;;;;5027804;28;20057;-74
2022/12/07 07:26:10;;;;;;;9.40;7.78;;;;;;;;;;5024575;28;20041;-73
2022/12/07 07:28:37;;;;;;;8.02;7.20;;;;;;;;;;5035905;28;20049;-73
2022/12/07 07:31:05;;;;;;;9.30;7.35;;;;;;;;;;5032107;28;20045;-73
2022/12/07 07:33:33;;;;;;;10.75;8.93;;;;;;;;;;5034567;28;20033;-73
2022/12/07 07:36:01;;;;;;;8.30;7.45;;;;;;;;;;5033761;28;20542;-73
2022/12/07 07:38:28;;;;;;;10.45;9.20;;;;;;;;;;5039096;28;20045;-73
2022/12/07 07:40:55;;;;;;;10.20;7.50;;;;;;;;;;5028127;28;20045;-73
2022/12/07 07:43:22;;;;;;;16.75;15.43;;;;;;;;;;5025601;28;20044;-73
2022/12/07 07:45:50;;;;;;;9.45;7.45;;;;;;;;;;5032527;28;20566;-74
2022/12/07 07:48:18;;;;;;;8.63;7.32;;;;;;;;;;5020070;28;20325;-72
2022/12/07 07:50:45;;;;;;;10.55;8.32;;;;;;;;;;5021520;28;20037;-72
2022/12/07 07:53:12;;;;;;;12.38;7.70;;;;;;;;;;5024527;28;20040;-71
2022/12/07 07:55:56;;;;;;;10.23;7.43;;;;;;;;;;5034983;28;20049;-73
2022/12/07 07:58:39;;;;;;;9.80;7.95;;;;;;;;;;5039142;28;20060;-72
2022/12/07 08:01:07;;;;;;;9.48;7.82;;;;;;;;;;5036536;28;20037;-72
2022/12/07 08:03:35;;;;;;;9.73;8.20;;;;;;;;;;5031339;28;20048;-73
2022/12/07 08:06:05;;;;;;;11.38;9.15;;;;;;;;;;5028872;28;20071;-73
2022/12/07 08:08:33;;;;;;;10.82;8.70;;;;;;;;;;5029533;28;20114;-73
2022/12/07 08:11:01;;;;;;;12.48;9.85;;;;;;;;;;5032100;28;20094;-73
2022/12/07 08:13:29;;;;;;;9.50;7.90;;;;;;;;;;5020255;23;1512285;-85
2022/12/07 08:15:58;;;;;;;10.90;9.20;;;;;;;;;;5032378;28;20065;-84
2022/12/07 08:18:25;;;;;;;11.75;8.55;;;;;;;;;;5031770;28;20044;-83
2022/12/07 08:20:58;;;;;;;10.32;8.35;;;;;;;;;;5029765;28;20377;-83
2022/12/07 08:23:26;;;;;;;14.32;9.00;;;;;;;;;;5046688;28;20235;-84
2022/12/07 08:26:06;;;;;;;13.68;10.15;;;;;;;;;;5047827;28;20040;-84
2022/12/07 08:28:33;;;;;;;8.82;7.40;;;;;;;;;;5029322;28;20053;-84
2022/12/07 08:31:06;;;;;;;12.77;9.15;;;;;;;;;;5047703;28;20045;-86
2022/12/07 08:33:35;;;;;;;10.70;9.57;;;;;;;;;;5043617;28;20060;-85
2022/12/07 08:36:03;;;;;;;17.13;15.63;;;;;;;;;;5055370;28;20045;-84
2022/12/07 08:38:31;;;;;;;9.50;8.32;;;;;;;;;;5058741;28;20053;-85
2022/12/07 08:40:59;;;;;;;9.85;8.85;;;;;;;;;;5055901;28;20076;-82
2022/12/07 08:43:26;;;;;;;10.45;8.98;;;;;;;;;;5048580;28;20140;-84
2022/12/07 08:46:09;;;;;;;12.32;8.55;;;;;;;;;;5047025;28;20468;-83
2022/12/07 08:48:40;;;;;;;11.15;8.82;;;;;;;;;;5054817;28;20037;-84
2022/12/07 08:51:07;;;;;;;9.07;6.53;;;;;;;;;;5053368;28;20059;-84
2022/12/07 08:53:36;;;;;;;11.52;10.35;;;;;;;;;;5051688;28;20103;-84
2022/12/07 08:56:04;;;;;;;10.50;8.95;;;;;;;;;;5035924;28;20111;-81
2022/12/07 08:58:32;;;;;;;9.95;8.27;;;;;;;;;;5052250;28;20154;-85
2022/12/07 09:01:00;;;;;;;9.93;8.00;;;;;;;;;;5054706;28;20442;-85
2022/12/07 09:03:28;;;;;;;28.55;26.23;;;;;;;;;;5042799;28;20128;-83
2022/12/07 09:05:59;;;;;;;8.50;7.60;;;;;;;;;;5045337;28;20037;-83
2022/12/07 09:08:30;;;;;;;12.68;8.80;;;;;;;;;;5062941;28;20048;-82
2022/12/07 09:10:58;;;;;;;7.50;6.80;;;;;;;;;;5062755;28;20051;-82
2022/12/07 09:13:25;;;;;;;9.60;7.15;;;;;;;;;;5059258;28;20475;-85
2022/12/07 09:15:52;;;;;;;8.30;7.38;;;;;;;;;;5058270;28;20071;-84
2022/12/07 09:18:21;;;;;;;7.03;6.32;;;;;;;;;;5057801;28;20118;-84
2022/12/07 09:20:48;;;;;;;7.78;7.05;;;;;;;;;;5040140;28;20114;-83
2022/12/07 09:23:15;;;;;;;12.63;7.55;;;;;;;;;;5057997;28;20083;-83
2022/12/07 09:25:49;;;;;;;8.25;7.45;;;;;;;;;;5057347;28;20041;-82
2022/12/07 09:28:19;;;;;;;9.82;6.72;;;;;;;;;;5060820;28;20059;-84
2022/12/07 09:30:48;;;;;;;8.23;6.47;;;;;;;;;;5069337;28;20041;-85
2022/12/07 09:33:35;;;;;;;7.28;5.82;;;;;;;;;;5069440;28;20029;-82
2022/12/07 09:36:03;;;;;;;6.40;5.78;;;;;;;;;;5046891;28;20057;-83
2022/12/07 09:38:32;;;;;;;7.05;5.70;;;;;;;;;;5062951;28;20048;-84
2022/12/07 09:41:04;;;;;;;7.65;6.90;;;;;;;;;;5054292;28;20095;-84
2022/12/07 09:43:31;;;;;;;9.60;8.00;;;;;;;;;;5023261;28;20053;-85
2022/12/07 09:45:59;;;;;;;9.38;8.40;;;;;;;;;;5049382;28;20395;-83
2022/12/07 09:48:33;;;;;;;13.80;8.68;;;;;;;;;;5048267;28;20045;-84
2022/12/07 09:51:01;;;;;;;9.80;7.80;;;;;;;;;;5047374;28;20041;-84
2022/12/07 09:53:30;;;;;;;11.80;8.02;;;;;;;;;;5051755;28;20045;-82
2022/12/07 09:55:58;;;;;;;11.48;7.97;;;;;;;;;;5046752;28;20095;-86
2022/12/07 09:58:26;;;;;;;11.27;8.50;;;;;;;;;;5032966;28;20124;-85
2022/12/07 10:00:56;;;;;;;18.88;14.95;;;;;;;;;;5052540;28;20036;-85
2022/12/07 10:03:23;;;;;;;12.10;7.90;;;;;;;;;;5065834;28;20053;-85
2022/12/07 10:05:52;;;;;;;8.35;7.30;;;;;;;;;;5061136;28;20040;-86
2022/12/07 10:08:21;;;;;;;9.18;7.78;;;;;;;;;;5063782;28;20395;-85
2022/12/07 10:10:53;;;;;;;8.25;7.43;;;;;;;;;;5066461;28;20056;-84
2022/12/07 10:13:22;;;;;;;15.55;13.57;;;;;;;;;;5060333;28;20060;-81
2022/12/07 10:15:54;;;;;;;9.40;8.00;;;;;;;;;;5052571;28;20108;-84
2022/12/07 10:18:38;;;;;;;9.80;7.53;;;;;;;;;;5055939;28;20063;-85
2022/12/07 10:21:10;;;;;;;10.70;8.35;;;;;;;;;;5054344;28;20049;-84
2022/12/07 10:23:37;;;;;;;;;;;;;;;;;;5060215;28;20040;-83
2022/12/07 10:26:29;;;;;;;8.55;6.68;;;;;;;;;;5038339;28;19978;-82
2022/12/07 10:28:59;;;;;;;10.90;7.53;;;;;;;;;;5056349;28;20037;-84
2022/12/07 10:31:26;;;;;;;7.72;6.93;;;;;;;;;;5036458;28;20075;-83
2022/12/07 10:34:01;;;;;;;7.50;6.80;;;;;;;;;;5050660;28;20067;-83
2022/12/07 10:36:32;;;;;;;14.65;8.40;;;;;;;;;;5051421;28;20109;-86
2022/12/07 10:39:03;;;;;;;10.65;6.85;;;;;;;;;;5053606;28;20070;-84
2022/12/07 10:41:30;;;;;;;8.82;6.97;;;;;;;;;;5051725;28;20091;-82
2022/12/07 10:43:58;;;;;;;10.25;7.32;;;;;;;;;;5046319;28;20045;-83
2022/12/07 10:46:45;;;;;;;12.30;7.70;;;;;;;;;;5043772;28;20045;-84
2022/12/07 10:49:21;;;;;;;7.78;6.97;;;;;;;;;;5051766;28;20295;-84
2022/12/07 10:51:56;;;;;;;8.38;7.30;;;;;;;;;;5056029;28;21410;-85
2022/12/07 10:54:43;;;;;;;13.18;7.38;;;;;;;;;;5035409;28;20099;-85
2022/12/07 10:57:11;;;;;;;9.43;7.20;;;;;;;;;;5051294;28;20059;-85
2022/12/07 10:59:42;;;;;;;8.57;6.63;;;;;;;;;;5052651;28;20136;-85
2022/12/07 11:02:20;;;;;;;7.47;6.45;;;;;;;;;;5044687;28;20055;-84
2022/12/07 11:05:08;;;;;;;8.57;7.88;;;;;;;;;;5053831;28;20065;-85
2022/12/07 11:07:42;;;;;;;9.30;6.85;;;;;;;;;;5050651;28;20033;-84
2022/12/07 11:10:21;;;;;;;9.75;6.70;;;;;;;;;;5053943;28;20036;-84
2022/12/07 11:12:55;;;;;;;7.40;6.47;;;;;;;;;;5053898;28;20037;-82
2022/12/07 11:15:22;;;;;;;8.68;6.75;;;;;;;;;;5051571;28;20033;-85
2022/12/07 11:17:56;;;;;;;6.47;5.88;;;;;;;;;;5056217;28;20059;-84
2022/12/07 11:20:30;;;;;;;12.57;11.18;;;;;;;;;;5055978;28;20118;-86
2022/12/07 11:23:07;;;;;;;7.32;6.50;;;;;;;;;;5056996;28;20079;-85
2022/12/07 11:25:47;;;;;;;7.63;6.82;;;;;;;;;;5053456;28;20075;-83
2022/12/07 11:28:14;;;;;;;7.15;6.45;;;;;;;;;;5043235;28;20033;-84
2022/12/07 11:31:00;;;;;;;10.82;7.90;;;;;;;;;;5048246;28;20056;-83
2022/12/07 11:33:38;;;;;;;8.43;7.00;;;;;;;;;;5046678;28;20462;-84
2022/12/07 11:36:07;;;;;;;9.02;6.97;;;;;;;;;;5054242;28;20041;-83
2022/12/07 11:38:44;;;;;;;8.57;7.35;;;;;;;;;;5067896;28;20041;-83
2022/12/07 11:41:13;;;;;;;8.60;7.32;;;;;;;;;;5063684;28;20043;-84
2022/12/07 11:43:59;;;;;;;25.42;22.92;;;;;;;;;;5057099;28;20040;-85
2022/12/07 11:46:34;;;;;;;11.15;9.93;;;;;;;;;;5052595;28;20071;-84
2022/12/07 11:49:08;;;;;;;13.40;7.70;;;;;;;;;;5050984;28;20048;-82
2022/12/07 11:51:38;;;;;;;16.48;14.75;;;;;;;;;;5052330;28;20049;-84
2022/12/07 11:54:24;;;;;;;11.23;7.60;;;;;;;;;;5053355;28;20036;-83
2022/12/07 11:56:52;;;;;;;10.38;7.30;;;;;;;;;;5051220;28;20036;-85
2022/12/07 11:59:26;;;;;;;7.45;6.30;;;;;;;;;;5054022;28;20072;-84
2022/12/07 12:01:56;;;;;;;21.33;19.30;;;;;;;;;;5048755;28;20045;-83
2022/12/07 12:04:23;;;;;;;19.52;13.93;;;;;;;;;;5051663;28;20040;-84
2022/12/07 12:06:51;;;;;;;7.43;6.10;;;;;;;;;;5034876;28;20052;-85
2022/12/07 12:09:25;;;;;;;8.40;7.13;;;;;;;;;;5053697;28;20037;-84
2022/12/07 12:12:07;;;;;;;7.82;6.85;;;;;;;;;;5043949;28;20067;-85
2022/12/07 12:14:55;;;;;;;8.75;5.93;;;;;;;;;;5051028;28;20029;-84
2022/12/07 12:17:28;;;;;;;9.95;6.05;;;;;;;;;;5052537;28;20044;-84
2022/12/07 12:20:02;;;;;;;11.32;6.00;;;;;;;;;;5051688;28;20045;-85
2022/12/07 12:22:52;;;;;;;7.78;5.93;;;;;;;;;;5050540;28;20064;-85
2022/12/07 12:25:29;;;;;;;8.68;6.00;;;;;;;;;;5025809;28;20045;-86
2022/12/07 12:27:58;;;;;;;8.27;6.85;;;;;;;;;;5050696;28;20099;-84
2022/12/07 12:30:36;;;;;;;8.48;7.57;;;;;;;;;;5053592;28;20045;-84
2022/12/07 12:33:06;;;;;;;9.50;6.85;;;;;;;;;;5020432;28;20048;-85
2022/12/07 12:35:37;;;;;;;6.85;5.70;;;;;;;;;;5054428;28;20041;-84
2022/12/07 12:38:23;;;;;;;13.87;6.57;;;;;;;;;;5051724;28;20199;-85
2022/12/07 12:40:50;;;;;;;12.20;7.15;;;;;;;;;;5053889;28;20045;-84
2022/12/07 12:43:45;;;;;;;7.60;6.88;;;;;;;;;;5053158;28;20063;-83
2022/12/07 12:46:34;;;;;;;8.27;5.80;;;;;;;;;;5049593;28;20041;-85
2022/12/07 12:49:20;;;;;;;10.85;9.40;;;;;;;;;;5068465;28;20052;-85
2022/12/07 12:51:50;;;;;;;7.30;6.50;;;;;;;;;;5047768;28;20109;-85
2022/12/07 12:54:26;;;;;;;7.22;6.30;;;;;;;;;;5061090;28;20056;-85
2022/12/07 12:56:56;;;;;;;8.23;6.22;;;;;;;;;;5082841;28;20048;-86
2022/12/07 12:59:32;;;;;;;10.05;6.40;;;;;;;;;;5059726;28;20051;-84
2022/12/07 13:02:05;;;;;;;8.77;7.13;;;;;;;;;;5054189;28;20104;-84
2022/12/07 13:04:51;;;;;;;9.40;6.63;;;;;;;;;;5072035;28;20041;-84
2022/12/07 13:07:51;;;;;;;7.93;6.50;;;;;;;;;;5088432;28;20043;-84
2022/12/07 13:10:28;;;;;;;12.25;6.32;;;;;;;;;;5080241;28;20066;-85
2022/12/07 13:12:59;;;;;;;11.13;6.80;;;;;;;;;;5083016;28;20056;-84
2022/12/07 13:15:38;;;;;;;8.95;7.45;;;;;;;;;;5078108;28;20183;-85
2022/12/07 13:18:05;;;;;;;8.10;6.47;;;;;;;;;;5078357;28;20072;-84
2022/12/07 13:20:41;;;;;;;13.57;6.65;;;;;;;;;;5077569;28;20229;-84
2022/12/07 13:23:09;;;;;;;7.22;6.35;;;;;;;;;;5077940;28;20568;-84
2022/12/07 13:25:41;;;;;;;8.75;7.20;;;;;;;;;;5076165;28;20141;-85
2022/12/07 13:28:11;;;;;;;8.90;7.20;;;;;;;;;;5077206;28;20045;-85
2022/12/07 13:30:45;;;;;;;7.80;6.22;;;;;;;;;;5078066;28;20173;-85
2022/12/07 13:33:13;;;;;;;9.75;7.53;;;;;;;;;;5078703;28;20066;-83
2022/12/07 13:35:41;;;;;;;13.07;9.15;;;;;;;;;;5075361;28;20330;-84
2022/12/07 13:38:28;;;;;;;10.93;7.70;;;;;;;;;;5078572;28;20653;-85
2022/12/07 13:41:02;;;;;;;9.73;7.78;;;;;;;;;;5076589;28;20543;-84
2022/12/07 13:43:30;;;;;;;8.35;7.30;;;;;;;;;;5076018;28;20048;-82
2022/12/07 13:46:00;;;;;;;9.35;7.22;;;;;;;;;;5075239;28;20094;-85
2022/12/07 13:48:32;;;;;;;7.82;7.03;;;;;;;;;;5060956;28;20044;-82
2022/12/07 13:51:00;;;;;;;;;;;;;;;;;;5058122;28;20041;-85
2022/12/07 13:53:30;;;;;;;7.07;6.15;;;;;;;;;;5020234;28;19925;-85
2022/12/07 13:55:59;;;;;;;7.53;6.75;;;;;;;;;;5035192;28;20415;-85
2022/12/07 13:58:31;;;;;;;8.60;7.20;;;;;;;;;;5055078;28;20111;-85
2022/12/07 14:00:58;;;;;;;7.25;6.47;;;;;;;;;;5051209;28;20040;-85
2022/12/07 14:03:28;;;;;;;8.85;7.15;;;;;;;;;;5024932;28;20585;-85
2022/12/07 14:06:16;;;;;;;9.88;7.22;;;;;;;;;;5051841;28;20446;-84
2022/12/07 14:08:44;;;;;;;20.35;17.83;;;;;;;;;;5057369;28;20478;-85
2022/12/07 14:11:16;;;;;;;8.10;6.95;;;;;;;;;;5057456;28;20045;-84
2022/12/07 14:13:49;;;;;;;8.75;7.75;;;;;;;;;;5077737;22;20044;-75
2022/12/07 14:16:34;;;;;;;8.25;7.10;;;;;;;;;;5047702;28;20124;-75
2022/12/07 14:19:06;;;;;;;9.57;7.32;;;;;;;;;;5045742;28;20049;-75
2022/12/07 14:21:34;;;;;;;8.57;7.15;;;;;;;;;;5026890;28;20053;-74
2022/12/07 14:24:20;;;;;;;7.53;6.60;;;;;;;;;;5027629;28;20049;-77
2022/12/07 14:26:48;;;;;;;8.75;6.95;;;;;;;;;;5055609;28;20041;-75
2022/12/07 14:29:21;;;;;;;11.50;6.97;;;;;;;;;;5047712;28;20041;-75
2022/12/07 14:31:49;;;;;;;8.20;6.43;;;;;;;;;;5048177;28;20126;-75
2022/12/07 14:34:16;;;;;;;13.20;6.53;;;;;;;;;;5047095;28;20037;-75
2022/12/07 14:36:44;;;;;;;6.50;5.90;;;;;;;;;;5056450;28;20043;-76
2022/12/07 14:39:11;;;;;;;9.57;6.97;;;;;;;;;;5068736;28;20048;-75
2022/12/07 14:41:52;;;;;;;8.55;7.22;;;;;;;;;;5051672;28;20068;-75
2022/12/07 14:44:20;;;;;;;9.55;7.57;;;;;;;;;;5039436;28;20435;-75
2022/12/07 14:46:51;;;;;;;10.00;7.47;;;;;;;;;;5046970;28;20500;-74
2022/12/07 14:49:39;;;;;;;8.45;5.68;;;;;;;;;;5042321;28;20041;-74
2022/12/07 14:52:10;;;;;;;11.43;7.82;;;;;;;;;;5058556;28;20044;-74
2022/12/07 14:54:57;;;;;;;7.60;6.18;;;;;;;;;;5047858;28;20511;-75
2022/12/07 14:57:25;;;;;;;9.57;6.78;;;;;;;;;;5067033;28;20045;-75
2022/12/07 14:59:52;;;;;;;13.43;10.18;;;;;;;;;;5067929;28;20052;-75
2022/12/07 15:02:19;;;;;;;9.38;6.35;;;;;;;;;;5045477;28;20045;-75
2022/12/07 15:04:47;;;;;;;8.40;6.75;;;;;;;;;;5052279;28;20053;-76
2022/12/07 15:07:20;;;;;;;9.57;6.28;;;;;;;;;;5046439;28;20041;-74